sensor_id;sensor_type;location;lat;lon;timestamp;pressure;altitude;pressure_sealevel;temperature;humidity
76994;BME280;66749;47.406;18.822;2023-07-13T00:00:05;100064.03;;;23.54;75.45
76994;BME280;66749;47.406;18.822;2023-07-13T00:00:42;100058.50;;;23.56;74.85
76994;BME280;66749;47.406;18.822;2023-07-13T00:01:16;100051.72;;;23.53;75.07
76994;BME280;66749;47.406;18.822;2023-07-13T00:01:49;100050.69;;;23.54;74.89
76994;BME280;66749;47.406;18.822;2023-07-13T00:02:24;100053.00;;;23.57;74.69
76994;BME280;66749;47.406;18.822;2023-07-13T00:02:58;100052.69;;;23.60;74.69
76994;BME280;66749;47.406;18.822;2023-07-13T00:03:30;100058.03;;;23.60;74.81
76994;BME280;66749;47.406;18.822;2023-07-13T00:04:06;100048.19;;;23.61;74.35
76994;BME280;66749;47.406;18.822;2023-07-13T00:04:38;100060.69;;;23.60;74.79
76994;BME280;66749;47.406;18.822;2023-07-13T00:05:10;100057.00;;;23.61;74.68
76994;BME280;66749;47.406;18.822;2023-07-13T00:05:43;100058.50;;;23.56;74.55
76994;BME280;66749;47.406;18.822;2023-07-13T00:06:15;100065.22;;;23.51;74.69
76994;BME280;66749;47.406;18.822;2023-07-13T00:06:47;100060.34;;;23.55;74.62
76994;BME280;66749;47.406;18.822;2023-07-13T00:07:19;100063.66;;;23.57;74.80
76994;BME280;66749;47.406;18.822;2023-07-13T00:07:55;100061.00;;;23.57;74.30
76994;BME280;66749;47.406;18.822;2023-07-13T00:08:30;100051.34;;;23.56;74.32
76994;BME280;66749;47.406;18.822;2023-07-13T00:09:02;100042.34;;;23.57;74.31
76994;BME280;66749;47.406;18.822;2023-07-13T00:09:34;100042.34;;;23.57;74.34
76994;BME280;66749;47.406;18.822;2023-07-13T00:10:08;100041.69;;;23.55;74.49
76994;BME280;66749;47.406;18.822;2023-07-13T00:10:41;100029.22;;;23.56;74.43
76994;BME280;66749;47.406;18.822;2023-07-13T00:11:13;100037.38;;;23.54;74.36
76994;BME280;66749;47.406;18.822;2023-07-13T00:11:49;100024.38;;;23.59;73.96
76994;BME280;66749;47.406;18.822;2023-07-13T00:12:34;100037.34;;;23.62;74.04
76994;BME280;66749;47.406;18.822;2023-07-13T00:13:06;100034.03;;;23.60;73.75
76994;BME280;66749;47.406;18.822;2023-07-13T00:13:39;100039.88;;;23.56;74.15
76994;BME280;66749;47.406;18.822;2023-07-13T00:14:11;100036.38;;;23.55;73.92
76994;BME280;66749;47.406;18.822;2023-07-13T00:14:43;100033.38;;;23.58;73.65
76994;BME280;66749;47.406;18.822;2023-07-13T00:15:20;100032.50;;;23.58;73.38
76994;BME280;66749;47.406;18.822;2023-07-13T00:15:54;100030.03;;;23.56;73.33
76994;BME280;66749;47.406;18.822;2023-07-13T00:16:27;100031.69;;;23.57;73.35
76994;BME280;66749;47.406;18.822;2023-07-13T00:16:59;100023.69;;;23.57;72.93
76994;BME280;66749;47.406;18.822;2023-07-13T00:17:32;100023.38;;;23.60;72.89
76994;BME280;66749;47.406;18.822;2023-07-13T00:18:04;100022.72;;;23.58;72.72
76994;BME280;66749;47.406;18.822;2023-07-13T00:18:36;100022.03;;;23.56;72.31
76994;BME280;66749;47.406;18.822;2023-07-13T00:19:10;100015.69;;;23.57;72.13
76994;BME280;66749;47.406;18.822;2023-07-13T00:19:43;100015.69;;;23.57;71.94
76994;BME280;66749;47.406;18.822;2023-07-13T00:20:15;100012.06;;;23.58;71.69
76994;BME280;66749;47.406;18.822;2023-07-13T00:20:47;100005.38;;;23.62;71.32
76994;BME280;66749;47.406;18.822;2023-07-13T00:21:19;100016.84;;;23.63;71.95
76994;BME280;66749;47.406;18.822;2023-07-13T00:21:51;100009.19;;;23.60;71.61
76994;BME280;66749;47.406;18.822;2023-07-13T00:22:27;100008.88;;;23.63;71.58
76994;BME280;66749;47.406;18.822;2023-07-13T00:22:59;100005.19;;;23.64;71.42
76994;BME280;66749;47.406;18.822;2023-07-13T00:23:36;100008.88;;;23.63;71.19
76994;BME280;66749;47.406;18.822;2023-07-13T00:24:16;99996.84;;;23.67;71.31
76994;BME280;66749;47.406;18.822;2023-07-13T00:24:55;99988.66;;;23.68;71.11
76994;BME280;66749;47.406;18.822;2023-07-13T00:25:30;99993.69;;;23.63;70.75
76994;BME280;66749;47.406;18.822;2023-07-13T00:26:04;99984.34;;;23.67;70.70
76994;BME280;66749;47.406;18.822;2023-07-13T00:26:36;99992.69;;;23.64;70.81
76994;BME280;66749;47.406;18.822;2023-07-13T00:27:09;99986.34;;;23.65;70.60
76994;BME280;66749;47.406;18.822;2023-07-13T00:27:42;99986.34;;;23.65;70.72
76994;BME280;66749;47.406;18.822;2023-07-13T00:28:14;99990.84;;;23.65;70.67
76994;BME280;66749;47.406;18.822;2023-07-13T00:28:46;99985.91;;;23.62;70.75
76994;BME280;66749;47.406;18.822;2023-07-13T00:29:17;99979.75;;;23.61;70.30
76994;BME280;66749;47.406;18.822;2023-07-13T00:29:49;99982.84;;;23.65;70.26
76994;BME280;66749;47.406;18.822;2023-07-13T00:30:22;99981.03;;;23.65;70.01
76994;BME280;66749;47.406;18.822;2023-07-13T00:30:54;99977.72;;;23.63;69.92
76994;BME280;66749;47.406;18.822;2023-07-13T00:31:26;99981.19;;;23.64;69.80
76994;BME280;66749;47.406;18.822;2023-07-13T00:31:57;99978.53;;;23.64;69.78
76994;BME280;66749;47.406;18.822;2023-07-13T00:32:29;99978.09;;;23.60;69.52
76994;BME280;66749;47.406;18.822;2023-07-13T00:33:02;99987.53;;;23.63;69.47
76994;BME280;66749;47.406;18.822;2023-07-13T00:33:48;99992.69;;;23.64;69.37
76994;BME280;66749;47.406;18.822;2023-07-13T00:34:20;99987.72;;;23.61;69.05
76994;BME280;66749;47.406;18.822;2023-07-13T00:34:52;99989.88;;;23.66;68.88
76994;BME280;66749;47.406;18.822;2023-07-13T00:35:25;99987.03;;;23.67;68.75
76994;BME280;66749;47.406;18.822;2023-07-13T00:35:57;99979.03;;;23.67;68.46
76994;BME280;66749;47.406;18.822;2023-07-13T00:36:30;99981.88;;;23.66;68.46
76994;BME280;66749;47.406;18.822;2023-07-13T00:37:02;99977.19;;;23.68;68.70
76994;BME280;66749;47.406;18.822;2023-07-13T00:37:34;99980.69;;;23.68;68.49
76994;BME280;66749;47.406;18.822;2023-07-13T00:38:07;99985.00;;;23.69;68.54
76994;BME280;66749;47.406;18.822;2023-07-13T00:38:39;99977.38;;;23.66;68.42
76994;BME280;66749;47.406;18.822;2023-07-13T00:39:12;99975.16;;;23.70;68.48
76994;BME280;66749;47.406;18.822;2023-07-13T00:39:44;99969.63;;;23.71;68.60
76994;BME280;66749;47.406;18.822;2023-07-13T00:40:16;99973.97;;;23.72;68.44
76994;BME280;66749;47.406;18.822;2023-07-13T00:40:48;99971.97;;;23.74;68.33
76994;BME280;66749;47.406;18.822;2023-07-13T00:41:20;99971.28;;;23.72;68.34
76994;BME280;66749;47.406;18.822;2023-07-13T00:41:52;99967.81;;;23.72;68.30
76994;BME280;66749;47.406;18.822;2023-07-13T00:42:24;99966.63;;;23.74;68.60
76994;BME280;66749;47.406;18.822;2023-07-13T00:42:58;99973.81;;;23.74;68.35
76994;BME280;66749;47.406;18.822;2023-07-13T00:43:31;99970.47;;;23.72;68.31
76994;BME280;66749;47.406;18.822;2023-07-13T00:44:03;99969.31;;;23.74;68.05
76994;BME280;66749;47.406;18.822;2023-07-13T00:44:35;99969.31;;;23.74;68.43
76994;BME280;66749;47.406;18.822;2023-07-13T00:46:09;99966.63;;;23.74;68.05
76994;BME280;66749;47.406;18.822;2023-07-13T00:46:09;99972.97;;;23.73;68.06
76994;BME280;66749;47.406;18.822;2023-07-13T00:46:42;99964.31;;;23.71;68.07
76994;BME280;66749;47.406;18.822;2023-07-13T00:47:14;99972.69;;;23.68;68.08
76994;BME280;66749;47.406;18.822;2023-07-13T00:47:46;99964.69;;;23.68;68.17
76994;BME280;66749;47.406;18.822;2023-07-13T00:48:25;99960.81;;;23.71;67.42
76994;BME280;66749;47.406;18.822;2023-07-13T00:49:02;99960.00;;;23.70;67.97
76994;BME280;66749;47.406;18.822;2023-07-13T00:49:35;99963.69;;;23.69;68.11
76994;BME280;66749;47.406;18.822;2023-07-13T00:50:13;99954.03;;;23.68;68.47
76994;BME280;66749;47.406;18.822;2023-07-13T00:50:49;99962.84;;;23.69;68.45
76994;BME280;66749;47.406;18.822;2023-07-13T00:51:27;99958.06;;;23.64;67.89
76994;BME280;66749;47.406;18.822;2023-07-13T00:52:07;99960.56;;;23.66;67.92
76994;BME280;66749;47.406;18.822;2023-07-13T00:52:44;99960.38;;;23.67;67.83
76994;BME280;66749;47.406;18.822;2023-07-13T00:53:18;99958.34;;;23.69;67.91
76994;BME280;66749;47.406;18.822;2023-07-13T00:53:53;99964.31;;;23.71;67.88
76994;BME280;66749;47.406;18.822;2023-07-13T00:54:38;99955.69;;;23.69;67.69
76994;BME280;66749;47.406;18.822;2023-07-13T00:55:13;99964.69;;;23.68;67.78
76994;BME280;66749;47.406;18.822;2023-07-13T00:55:47;99956.22;;;23.65;67.95
76994;BME280;66749;47.406;18.822;2023-07-13T00:56:20;99953.72;;;23.63;67.74
76994;BME280;66749;47.406;18.822;2023-07-13T00:56:58;99958.25;;;23.63;68.05
76994;BME280;66749;47.406;18.822;2023-07-13T00:57:31;99952.72;;;23.64;67.88
76994;BME280;66749;47.406;18.822;2023-07-13T00:58:03;99947.38;;;23.64;68.04
76994;BME280;66749;47.406;18.822;2023-07-13T00:58:36;99956.41;;;23.63;67.93
76994;BME280;66749;47.406;18.822;2023-07-13T00:59:10;99950.06;;;23.64;67.74
76994;BME280;66749;47.406;18.822;2023-07-13T00:59:48;99949.41;;;23.62;67.28
76994;BME280;66749;47.406;18.822;2023-07-13T01:00:22;99944.91;;;23.63;67.83
76994;BME280;66749;47.406;18.822;2023-07-13T01:00:54;99947.38;;;23.64;67.52
76994;BME280;66749;47.406;18.822;2023-07-13T01:01:26;99951.06;;;23.63;67.64
76994;BME280;66749;47.406;18.822;2023-07-13T01:01:58;99949.03;;;23.65;67.70
76994;BME280;66749;47.406;18.822;2023-07-13T01:02:30;99942.06;;;23.64;67.79
76994;BME280;66749;47.406;18.822;2023-07-13T01:03:03;99945.75;;;23.63;67.72
76994;BME280;66749;47.406;18.822;2023-07-13T01:03:36;99952.09;;;23.62;68.03
76994;BME280;66749;47.406;18.822;2023-07-13T01:04:09;99943.25;;;23.62;68.08
76994;BME280;66749;47.406;18.822;2023-07-13T01:04:41;99940.59;;;23.62;68.12
76994;BME280;66749;47.406;18.822;2023-07-13T01:05:19;99944.28;;;23.61;68.10
76994;BME280;66749;47.406;18.822;2023-07-13T01:05:51;99939.78;;;23.61;67.84
76994;BME280;66749;47.406;18.822;2023-07-13T01:06:25;99943.44;;;23.60;67.85
76994;BME280;66749;47.406;18.822;2023-07-13T01:06:58;99938.13;;;23.60;67.70
76994;BME280;66749;47.406;18.822;2023-07-13T01:07:30;99941.44;;;23.62;67.83
76994;BME280;66749;47.406;18.822;2023-07-13T01:08:03;99939.59;;;23.63;67.96
76994;BME280;66749;47.406;18.822;2023-07-13T01:08:36;99947.59;;;23.63;68.09
76994;BME280;66749;47.406;18.822;2023-07-13T01:09:08;99946.75;;;23.62;67.89
76994;BME280;66749;47.406;18.822;2023-07-13T01:09:41;99946.94;;;23.61;67.86
76994;BME280;66749;47.406;18.822;2023-07-13T01:10:14;99950.59;;;23.60;68.48
76994;BME280;66749;47.406;18.822;2023-07-13T01:10:57;99961.47;;;23.50;69.07
76994;BME280;66749;47.406;18.822;2023-07-13T01:11:29;99953.56;;;23.42;69.22
76994;BME280;66749;47.406;18.822;2023-07-13T01:12:02;99955.13;;;23.36;69.45
76994;BME280;66749;47.406;18.822;2023-07-13T01:12:34;99956.66;;;23.31;69.84
76994;BME280;66749;47.406;18.822;2023-07-13T01:13:09;99952.03;;;23.24;70.18
76994;BME280;66749;47.406;18.822;2023-07-13T01:13:41;99948.38;;;23.25;70.04
76994;BME280;66749;47.406;18.822;2023-07-13T01:14:14;99945.19;;;23.30;70.11
76994;BME280;66749;47.406;18.822;2023-07-13T01:14:46;99945.19;;;23.30;69.82
76994;BME280;66749;47.406;18.822;2023-07-13T01:16:17;99945.00;;;23.32;69.97
76994;BME280;66749;47.406;18.822;2023-07-13T01:16:51;99930.41;;;23.28;70.27
76994;BME280;66749;47.406;18.822;2023-07-13T01:17:24;99935.44;;;23.22;70.08
76994;BME280;66749;47.406;18.822;2023-07-13T01:17:56;99932.78;;;23.22;70.39
76994;BME280;66749;47.406;18.822;2023-07-13T01:18:29;99943.59;;;23.21;70.35
76994;BME280;66749;47.406;18.822;2023-07-13T01:19:04;99947.09;;;23.21;70.26
76994;BME280;66749;47.406;18.822;2023-07-13T01:19:42;99950.66;;;23.14;70.54
76994;BME280;66749;47.406;18.822;2023-07-13T01:20:15;99952.81;;;23.10;70.92
76994;BME280;66749;47.406;18.822;2023-07-13T01:21:00;99953.19;;;23.07;70.91
76994;BME280;66749;47.406;18.822;2023-07-13T01:21:33;99947.03;;;23.07;70.99
76994;BME280;66749;47.406;18.822;2023-07-13T01:22:08;99946.84;;;23.08;70.99
76994;BME280;66749;47.406;18.822;2023-07-13T01:22:40;99948.50;;;23.09;70.91
76994;BME280;66749;47.406;18.822;2023-07-13T01:23:12;99947.97;;;23.14;70.46
76994;BME280;66749;47.406;18.822;2023-07-13T01:23:45;99949.81;;;23.13;70.67
76994;BME280;66749;47.406;18.822;2023-07-13T01:24:16;99942.00;;;23.12;70.82
76994;BME280;66749;47.406;18.822;2023-07-13T01:24:48;99945.66;;;23.11;71.12
76994;BME280;66749;47.406;18.822;2023-07-13T01:25:20;99938.22;;;23.06;71.31
76994;BME280;66749;47.406;18.822;2023-07-13T01:25:53;99946.91;;;23.00;71.86
76994;BME280;66749;47.406;18.822;2023-07-13T01:26:26;99938.63;;;22.95;71.69
76994;BME280;66749;47.406;18.822;2023-07-13T01:26:58;99947.25;;;22.97;71.63
76994;BME280;66749;47.406;18.822;2023-07-13T01:27:30;99942.59;;;22.99;71.49
76994;BME280;66749;47.406;18.822;2023-07-13T01:28:04;99940.59;;;23.01;71.26
76994;BME280;66749;47.406;18.822;2023-07-13T01:28:36;99944.59;;;22.97;71.20
76994;BME280;66749;47.406;18.822;2023-07-13T01:29:08;99949.28;;;22.95;71.45
76994;BME280;66749;47.406;18.822;2023-07-13T01:29:43;99953.59;;;22.96;71.35
76994;BME280;66749;47.406;18.822;2023-07-13T01:30:15;99940.94;;;22.98;71.08
76994;BME280;66749;47.406;18.822;2023-07-13T01:30:47;99947.94;;;22.99;71.08
76994;BME280;66749;47.406;18.822;2023-07-13T01:31:19;99948.94;;;22.98;71.73
76994;BME280;66749;47.406;18.822;2023-07-13T01:31:51;99951.94;;;22.95;71.12
76994;BME280;66749;47.406;18.822;2023-07-13T01:32:24;99943.94;;;22.95;71.42
76994;BME280;66749;47.406;18.822;2023-07-13T01:32:57;99940.66;;;22.93;71.60
76994;BME280;66749;47.406;18.822;2023-07-13T01:33:29;99941.66;;;22.92;71.03
76994;BME280;66749;47.406;18.822;2023-07-13T01:34:01;99936.16;;;22.93;71.43
76994;BME280;66749;47.406;18.822;2023-07-13T01:34:33;99937.63;;;22.96;71.08
76994;BME280;66749;47.406;18.822;2023-07-13T01:35:05;99933.94;;;22.97;71.04
76994;BME280;66749;47.406;18.822;2023-07-13T01:35:37;99933.13;;;22.96;71.44
76994;BME280;66749;47.406;18.822;2023-07-13T01:36:10;99931.66;;;22.94;71.39
76994;BME280;66749;47.406;18.822;2023-07-13T01:36:43;99939.63;;;22.94;71.21
76994;BME280;66749;47.406;18.822;2023-07-13T01:37:15;99938.16;;;22.91;71.23
76994;BME280;66749;47.406;18.822;2023-07-13T01:37:47;99931.00;;;22.92;71.22
76994;BME280;66749;47.406;18.822;2023-07-13T01:38:22;99936.50;;;22.90;70.96
76994;BME280;66749;47.406;18.822;2023-07-13T01:38:54;99926.03;;;22.89;71.16
76994;BME280;66749;47.406;18.822;2023-07-13T01:39:26;99931.00;;;22.92;71.11
76994;BME280;66749;47.406;18.822;2023-07-13T01:39:59;99932.66;;;22.93;71.23
76994;BME280;66749;47.406;18.822;2023-07-13T01:40:31;99920.53;;;22.90;71.23
76994;BME280;66749;47.406;18.822;2023-07-13T01:41:03;99931.34;;;22.89;71.76
76994;BME280;66749;47.406;18.822;2023-07-13T01:41:35;99929.69;;;22.88;71.45
76994;BME280;66749;47.406;18.822;2023-07-13T01:42:07;99926.38;;;22.86;71.54
76994;BME280;66749;47.406;18.822;2023-07-13T01:42:41;99927.22;;;22.86;71.61
76994;BME280;66749;47.406;18.822;2023-07-13T01:43:13;99936.19;;;22.85;71.42
76994;BME280;66749;47.406;18.822;2023-07-13T01:43:45;99925.38;;;22.87;71.87
76994;BME280;66749;47.406;18.822;2023-07-13T01:44:17;99934.69;;;22.83;71.63
76994;BME280;66749;47.406;18.822;2023-07-13T01:44:49;99927.38;;;22.85;71.81
76994;BME280;66749;47.406;18.822;2023-07-13T01:45:21;99938.00;;;22.85;71.49
76994;BME280;66749;47.406;18.822;2023-07-13T01:45:53;99929.88;;;22.86;71.66
76994;BME280;66749;47.406;18.822;2023-07-13T01:46:34;99942.69;;;22.83;71.79
76994;BME280;66749;47.406;18.822;2023-07-13T01:47:06;99938.53;;;22.80;71.90
76994;BME280;66749;47.406;18.822;2023-07-13T01:47:38;99934.03;;;22.81;71.50
76994;BME280;66749;47.406;18.822;2023-07-13T01:48:10;99936.03;;;22.79;71.94
76994;BME280;66749;47.406;18.822;2023-07-13T01:48:42;99941.84;;;22.82;71.63
76994;BME280;66749;47.406;18.822;2023-07-13T01:49:14;99942.00;;;22.81;72.01
76994;BME280;66749;47.406;18.822;2023-07-13T01:49:46;99944.72;;;22.73;72.41
76994;BME280;66749;47.406;18.822;2023-07-13T01:50:19;99937.09;;;22.69;72.75
76994;BME280;66749;47.406;18.822;2023-07-13T01:50:51;99945.09;;;22.69;72.95
76994;BME280;66749;47.406;18.822;2023-07-13T01:51:22;99944.78;;;22.64;73.26
76994;BME280;66749;47.406;18.822;2023-07-13T01:51:54;99945.13;;;22.61;73.14
76994;BME280;66749;47.406;18.822;2023-07-13T01:52:26;99945.47;;;22.58;73.33
76994;BME280;66749;47.406;18.822;2023-07-13T01:52:58;99948.97;;;22.59;73.10
76994;BME280;66749;47.406;18.822;2023-07-13T01:53:30;99945.47;;;22.58;72.97
76994;BME280;66749;47.406;18.822;2023-07-13T01:54:02;99950.63;;;22.60;73.18
76994;BME280;66749;47.406;18.822;2023-07-13T01:54:33;99947.13;;;22.59;73.10
76994;BME280;66749;47.406;18.822;2023-07-13T01:55:06;99940.50;;;22.55;72.89
76994;BME280;66749;47.406;18.822;2023-07-13T01:55:38;99940.50;;;22.55;72.77
76994;BME280;66749;47.406;18.822;2023-07-13T01:56:10;99936.19;;;22.54;73.24
76994;BME280;66749;47.406;18.822;2023-07-13T01:56:42;99934.38;;;22.55;72.54
76994;BME280;66749;47.406;18.822;2023-07-13T01:57:14;99940.88;;;22.52;72.53
76994;BME280;66749;47.406;18.822;2023-07-13T01:57:46;99934.88;;;22.50;72.79
76994;BME280;66749;47.406;18.822;2023-07-13T01:58:18;99927.91;;;22.49;72.91
76994;BME280;66749;47.406;18.822;2023-07-13T01:58:49;99932.56;;;22.47;73.03
76994;BME280;66749;47.406;18.822;2023-07-13T01:59:21;99934.41;;;22.47;72.76
76994;BME280;66749;47.406;18.822;2023-07-13T01:59:53;99931.25;;;22.43;72.96
76994;BME280;66749;47.406;18.822;2023-07-13T02:00:25;99935.56;;;22.44;73.17
76994;BME280;66749;47.406;18.822;2023-07-13T02:00:57;99935.56;;;22.44;73.02
76994;BME280;66749;47.406;18.822;2023-07-13T02:01:29;99939.91;;;22.45;73.32
76994;BME280;66749;47.406;18.822;2023-07-13T02:02:01;99946.88;;;22.46;73.02
76994;BME280;66749;47.406;18.822;2023-07-13T02:02:33;99940.22;;;22.42;73.39
76994;BME280;66749;47.406;18.822;2023-07-13T02:03:05;99938.22;;;22.44;73.29
76994;BME280;66749;47.406;18.822;2023-07-13T02:03:37;99942.91;;;22.42;73.72
76994;BME280;66749;47.406;18.822;2023-07-13T02:04:08;99941.75;;;22.45;73.35
76994;BME280;66749;47.406;18.822;2023-07-13T02:04:40;99944.56;;;22.43;73.18
76994;BME280;66749;47.406;18.822;2023-07-13T02:05:13;99949.03;;;22.42;73.07
76994;BME280;66749;47.406;18.822;2023-07-13T02:05:45;99947.56;;;22.40;73.78
76994;BME280;66749;47.406;18.822;2023-07-13T02:06:17;99951.22;;;22.39;73.72
76994;BME280;66749;47.406;18.822;2023-07-13T02:06:49;99953.53;;;22.42;73.64
76994;BME280;66749;47.406;18.822;2023-07-13T02:07:21;99957.38;;;22.39;73.57
76994;BME280;66749;47.406;18.822;2023-07-13T02:07:53;99951.69;;;22.42;73.43
76994;BME280;66749;47.406;18.822;2023-07-13T02:08:25;99954.53;;;22.41;73.46
76994;BME280;66749;47.406;18.822;2023-07-13T02:08:57;99956.88;;;22.36;73.32
76994;BME280;66749;47.406;18.822;2023-07-13T02:09:30;99965.03;;;22.34;73.31
76994;BME280;66749;47.406;18.822;2023-07-13T02:10:02;99966.69;;;22.35;73.73
76994;BME280;66749;47.406;18.822;2023-07-13T02:10:34;99958.06;;;22.33;73.70
76994;BME280;66749;47.406;18.822;2023-07-13T02:11:06;99962.91;;;22.30;73.93
76994;BME280;66749;47.406;18.822;2023-07-13T02:11:38;99959.56;;;22.28;74.53
76994;BME280;66749;47.406;18.822;2023-07-13T02:12:10;99950.59;;;22.29;74.35
76994;BME280;66749;47.406;18.822;2023-07-13T02:12:42;99962.22;;;22.28;74.44
76994;BME280;66749;47.406;18.822;2023-07-13T02:13:14;99954.63;;;22.25;74.67
76994;BME280;66749;47.406;18.822;2023-07-13T02:13:46;99951.59;;;22.28;74.08
76994;BME280;66749;47.406;18.822;2023-07-13T02:14:18;99952.28;;;22.30;74.45
76994;BME280;66749;47.406;18.822;2023-07-13T02:14:50;99949.63;;;22.30;74.48
76994;BME280;66749;47.406;18.822;2023-07-13T02:15:22;99945.63;;;22.26;74.26
76994;BME280;66749;47.406;18.822;2023-07-13T02:15:54;99946.97;;;22.22;74.61
76994;BME280;66749;47.406;18.822;2023-07-13T02:16:26;99940.81;;;22.21;74.59
76994;BME280;66749;47.406;18.822;2023-07-13T02:16:57;99941.00;;;22.20;74.76
76994;BME280;66749;47.406;18.822;2023-07-13T02:17:30;99936.19;;;22.23;74.09
76994;BME280;66749;47.406;18.822;2023-07-13T02:18:02;99948.78;;;22.21;74.14
76994;BME280;66749;47.406;18.822;2023-07-13T02:18:35;99941.34;;;22.17;74.53
76994;BME280;66749;47.406;18.822;2023-07-13T02:19:07;99942.00;;;22.19;74.20
76994;BME280;66749;47.406;18.822;2023-07-13T02:19:40;99934.03;;;22.19;74.51
76994;BME280;66749;47.406;18.822;2023-07-13T02:20:12;99939.69;;;22.15;74.97
76994;BME280;66749;47.406;18.822;2023-07-13T02:20:44;99940.03;;;22.12;74.30
76994;BME280;66749;47.406;18.822;2023-07-13T02:21:16;99947.34;;;22.10;74.33
76994;BME280;66749;47.406;18.822;2023-07-13T02:21:48;99944.50;;;22.12;74.42
76994;BME280;66749;47.406;18.822;2023-07-13T02:22:21;99945.34;;;22.12;74.81
76994;BME280;66749;47.406;18.822;2023-07-13T02:22:53;99944.50;;;22.12;74.45
76994;BME280;66749;47.406;18.822;2023-07-13T02:23:25;99945.34;;;22.12;74.78
76994;BME280;66749;47.406;18.822;2023-07-13T02:23:57;99946.16;;;22.13;74.47
76994;BME280;66749;47.406;18.822;2023-07-13T02:24:29;99942.22;;;22.09;74.62
76994;BME280;66749;47.406;18.822;2023-07-13T02:25:01;99943.34;;;22.06;74.63
76994;BME280;66749;47.406;18.822;2023-07-13T02:25:33;99940.03;;;22.04;75.11
76994;BME280;66749;47.406;18.822;2023-07-13T02:26:05;99936.06;;;22.00;75.59
76994;BME280;66749;47.406;18.822;2023-07-13T02:26:37;99946.69;;;22.00;75.30
76994;BME280;66749;47.406;18.822;2023-07-13T02:27:09;99938.53;;;22.02;75.01
76994;BME280;66749;47.406;18.822;2023-07-13T02:27:41;99940.56;;;22.00;75.17
76994;BME280;66749;47.406;18.822;2023-07-13T02:28:13;99941.53;;;21.99;75.58
76994;BME280;66749;47.406;18.822;2023-07-13T02:28:45;99947.84;;;21.98;75.88
76994;BME280;66749;47.406;18.822;2023-07-13T02:29:16;99947.53;;;22.01;74.92
76994;BME280;66749;47.406;18.822;2023-07-13T02:29:48;99946.34;;;22.03;74.98
76994;BME280;66749;47.406;18.822;2023-07-13T02:30:22;99949.34;;;22.00;75.36
76994;BME280;66749;47.406;18.822;2023-07-13T02:31:13;99949.19;;;21.94;75.71
76994;BME280;66749;47.406;18.822;2023-07-13T02:31:45;99947.22;;;21.87;75.72
76994;BME280;66749;47.406;18.822;2023-07-13T02:32:18;99946.75;;;21.84;75.56
76994;BME280;66749;47.406;18.822;2023-07-13T02:32:50;99943.09;;;21.85;76.21
76994;BME280;66749;47.406;18.822;2023-07-13T02:33:22;99948.41;;;21.85;75.70
76994;BME280;66749;47.406;18.822;2023-07-13T02:33:54;99942.25;;;21.84;75.83
76994;BME280;66749;47.406;18.822;2023-07-13T02:34:26;99940.25;;;21.86;75.63
76994;BME280;66749;47.406;18.822;2023-07-13T02:34:57;99939.75;;;21.83;75.81
76994;BME280;66749;47.406;18.822;2023-07-13T02:35:29;99942.56;;;21.81;76.23
76994;BME280;66749;47.406;18.822;2023-07-13T02:36:02;99940.94;;;21.80;76.07
76994;BME280;66749;47.406;18.822;2023-07-13T02:36:34;99938.44;;;21.79;76.28
76994;BME280;66749;47.406;18.822;2023-07-13T02:37:06;99933.13;;;21.79;75.91
76994;BME280;66749;47.406;18.822;2023-07-13T02:37:38;99934.13;;;21.78;75.98
76994;BME280;66749;47.406;18.822;2023-07-13T02:38:10;99935.97;;;21.77;76.76
76994;BME280;66749;47.406;18.822;2023-07-13T02:38:42;99933.44;;;21.76;76.80
76994;BME280;66749;47.406;18.822;2023-07-13T02:39:14;99941.28;;;21.77;76.12
76994;BME280;66749;47.406;18.822;2023-07-13T02:39:46;99940.78;;;21.74;76.85
76994;BME280;66749;47.406;18.822;2023-07-13T02:40:17;99939.13;;;21.73;76.45
76994;BME280;66749;47.406;18.822;2023-07-13T02:40:49;99944.44;;;21.73;76.88
76994;BME280;66749;47.406;18.822;2023-07-13T02:41:21;99951.06;;;21.77;76.17
76994;BME280;66749;47.406;18.822;2023-07-13T02:41:54;99949.91;;;21.79;76.77
76994;BME280;66749;47.406;18.822;2023-07-13T02:42:26;99949.06;;;21.79;76.71
76994;BME280;66749;47.406;18.822;2023-07-13T02:42:58;99957.03;;;21.79;75.83
76994;BME280;66749;47.406;18.822;2023-07-13T02:43:30;99957.22;;;21.77;76.68
76994;BME280;66749;47.406;18.822;2023-07-13T02:44:02;99958.88;;;21.70;76.65
76994;BME280;66749;47.406;18.822;2023-07-13T02:44:35;99960.84;;;21.68;76.79
76994;BME280;66749;47.406;18.822;2023-07-13T02:45:08;99963.88;;;21.65;77.02
76994;BME280;66749;47.406;18.822;2023-07-13T02:45:44;99960.72;;;21.62;77.03
76994;BME280;66749;47.406;18.822;2023-07-13T02:46:16;99960.88;;;21.60;77.65
76994;BME280;66749;47.406;18.822;2023-07-13T02:46:48;99963.69;;;21.58;77.03
76994;BME280;66749;47.406;18.822;2023-07-13T02:47:20;99953.91;;;21.59;77.45
76994;BME280;66749;47.406;18.822;2023-07-13T02:47:52;99956.72;;;21.57;77.29
76994;BME280;66749;47.406;18.822;2023-07-13T02:48:24;99959.56;;;21.56;77.66
76994;BME280;66749;47.406;18.822;2023-07-13T02:48:55;99960.22;;;21.50;77.41
76994;BME280;66749;47.406;18.822;2023-07-13T02:49:27;99957.75;;;21.40;78.08
76994;BME280;66749;47.406;18.822;2023-07-13T02:49:59;99955.75;;;21.34;77.54
76994;BME280;66749;47.406;18.822;2023-07-13T02:50:31;99954.72;;;21.27;78.66
76994;BME280;66749;47.406;18.822;2023-07-13T02:51:03;99950.91;;;21.21;78.54
76994;BME280;66749;47.406;18.822;2023-07-13T02:51:35;99950.06;;;21.21;78.28
76994;BME280;66749;47.406;18.822;2023-07-13T02:52:07;99956.38;;;21.20;78.51
76994;BME280;66749;47.406;18.822;2023-07-13T02:52:39;99951.72;;;21.22;78.17
76994;BME280;66749;47.406;18.822;2023-07-13T02:53:11;99952.56;;;21.22;78.65